TAF LFLL
LFLL 081700Z 0818/0924 33006KT 9999 BKN030 TEMPO 0818/0821 3000 SHRA BKN014TCU PROB40 TEMPO 0903/0912 4000 -RADZ BKN014 PROB30 TEMPO 0904/0909 -RASN BKN009 TEMPO 0909/0916 08005KT BECMG 0916/0918 17008KT CAVOK=
METAR LFLL
LFLL 082200Z 31003KT 240V340 9999 SCT027 OVC053 03/03 Q1006 NOSIG=
LFLL 082130Z 23003KT 9999 FEW026 OVC050 03/03 Q1005 NOSIG=
LFLL 082100Z 00000KT 9999 FEW030 OVC050 04/03 Q1005 NOSIG=
LFLL 082030Z 00000KT 9999 -RA FEW009 SCT026 OVC042 03/03 Q1005 NOSIG=
LFLL 082000Z 20003KT 5000 -RA FEW018 BKN023 OVC036 04/03 Q1004 NOSIG=
WC LFLL
WS LFLL
WV LFLL